Impacts TAF Board
For situational awareness. Not to be used for flight planning purposes.
IDs:

KPHX - Phoenix/Sky Harbor, AZ, US

Issued at 0520 UTC 01 Aug 2021
Updated at 0801 UTC 01 Aug 2021
Potential Impact None Slight Moderate High
Time0751Z 01/08Z 01/09Z 01/10Z 01/11Z 01/12Z 01/13Z 01/14Z 01/15Z 01/16Z 01/17Z 01/18Z 01/19Z 01/20Z>>
Type OBS PRVL PRVL PRVL PRVL PRVL PRVL PRVL PRVL PRVL PRVL PRVL PRVL PRVL
VIS 10 >6 >6 >6 >6 >6 >6 >6 >6 >6 >6 >6 >6 >6
CIG -- -- -- -- -- -- -- -- -- -- -- -- -- --
Cover CLR FEW FEW FEW FEW FEW FEW FEW FEW FEW FEW FEW SCT SCT
FltCat VFR VFR VFR VFR VFR VFR VFR VFR VFR VFR VFR VFR VFR VFR
WX -- -- -- -- -- -- -- -- -- -- -- -- -- --
WDir VRB 90 90 90 90 90 90 90 90 90 90 90 270 270
WSpd 0 5 5 5 5 5 5 5 5 5 5 5 8 8
WGst -- -- -- -- -- -- -- -- -- -- -- -- -- --
Raw TAF
KPHX 010520Z 0106/0212 VRB05KT P6SM FEW180 FEW250
  FM010800 09005KT P6SM FEW150 FEW250
  FM011900 27008KT P6SM FEW180 SCT250
  FM020400 VRB04KT P6SM FEW150 FEW250
  FM021000 09004KT P6SM FEW120 FEW250


Raw METAR
KPHX 010751Z 00000KT 10SM CLR 32/18 A2993 RMK AO2 SLP113 T03220183
KPHX 010651Z 23003KT 10SM CLR 33/18 A2993 RMK AO2 SLP113 T03330178 403780250
KPHX 010551Z 23003KT 10SM FEW250 34/17 A2993 RMK AO2 SLP114 T03390172 10378 20339 51013
KPHX 010451Z 21003KT 10SM FEW250 34/17 A2993 RMK AO2 SLP113 T03440172

METAR Board
Radar Display
Forecast Discussion
For situational awareness. Not to be used for flight planning purposes.